createdAt,value
2022-12-17T00:02:35.778Z,-1.70
2022-12-17T00:05:23.478Z,-1.70
2022-12-17T00:08:15.334Z,-1.60
2022-12-17T00:11:00.997Z,-1.70
2022-12-17T00:13:46.532Z,-1.80
2022-12-17T00:16:32.239Z,-1.80
2022-12-17T00:19:19.193Z,-2.00
2022-12-17T00:22:04.790Z,-2.10
2022-12-17T00:24:50.380Z,-2.30
2022-12-17T00:27:35.776Z,-2.40
2022-12-17T00:30:21.363Z,-2.50
2022-12-17T00:33:06.131Z,-2.50
2022-12-17T00:35:52.708Z,-2.60
2022-12-17T00:38:39.100Z,-2.60
2022-12-17T00:41:24.604Z,-2.60
2022-12-17T00:44:11.030Z,-2.60
2022-12-17T00:46:56.561Z,-2.70
2022-12-17T00:49:41.968Z,-2.20
2022-12-17T00:52:30.242Z,-2.10
2022-12-17T00:55:15.977Z,-2.00
2022-12-17T00:58:01.503Z,-2.10
2022-12-17T01:00:47.148Z,-2.30
2022-12-17T01:03:34.132Z,-2.40
2022-12-17T01:06:20.495Z,-2.30
2022-12-17T01:09:07.592Z,-2.50
2022-12-17T01:11:52.992Z,-2.60
2022-12-17T01:14:42.003Z,-2.30
2022-12-17T01:17:27.529Z,-2.20
2022-12-17T01:20:15.314Z,-2.30
2022-12-17T01:23:00.962Z,-2.50
2022-12-17T01:25:47.757Z,-2.50
2022-12-17T01:28:40.865Z,-2.30
2022-12-17T01:31:31.454Z,-2.20
2022-12-17T01:34:19.894Z,-2.20
2022-12-17T01:37:05.952Z,-2.40
2022-12-17T01:39:51.626Z,-2.50
2022-12-17T01:42:38.293Z,-2.60
2022-12-17T01:45:28.617Z,-2.80
2022-12-17T01:48:17.645Z,-2.80
2022-12-17T01:51:07.845Z,-2.80
2022-12-17T01:53:56.447Z,-2.70
2022-12-17T01:56:44.671Z,-2.50
2022-12-17T01:59:33.556Z,-2.40
2022-12-17T02:02:33.659Z,-2.30
2022-12-17T02:05:20.080Z,-2.40
2022-12-17T02:08:15.581Z,-2.80
2022-12-17T02:11:08.175Z,-2.90
2022-12-17T02:14:00.213Z,-3.00
2022-12-17T02:16:53.423Z,-3.00
2022-12-17T02:19:49.717Z,-3.00
2022-12-17T02:22:45.620Z,-2.90
2022-12-17T02:25:48.195Z,-3.00
2022-12-17T02:28:35.121Z,-3.10
2022-12-17T02:31:21.134Z,-3.20
2022-12-17T02:34:07.332Z,-3.20
2022-12-17T02:36:53.824Z,-3.20
2022-12-17T02:39:40.333Z,-3.20
2022-12-17T02:42:26.311Z,-3.20
2022-12-17T02:45:15.266Z,-3.20
2022-12-17T02:48:01.992Z,-3.20
2022-12-17T02:50:47.325Z,-3.20
2022-12-17T02:53:34.581Z,-3.30
2022-12-17T02:56:20.180Z,-3.30
2022-12-17T02:59:05.436Z,-3.30
2022-12-17T03:01:53.562Z,-3.30
2022-12-17T03:04:39.264Z,-3.30
2022-12-17T03:07:24.936Z,-3.30
2022-12-17T03:10:10.480Z,-3.30
2022-12-17T03:13:00.144Z,-3.40
2022-12-17T03:15:45.724Z,-3.30
2022-12-17T03:18:32.690Z,-3.30
2022-12-17T03:21:18.016Z,-3.40
2022-12-17T03:24:14.841Z,-3.40
2022-12-17T03:27:00.181Z,-3.40
2022-12-17T03:29:45.672Z,-3.40
2022-12-17T03:32:30.952Z,-3.40
2022-12-17T03:35:17.654Z,-3.40
2022-12-17T03:38:14.722Z,-3.40
2022-12-17T03:41:00.259Z,-3.40
2022-12-17T03:43:45.886Z,-3.40
2022-12-17T03:46:31.131Z,-3.40
2022-12-17T03:49:16.672Z,-3.40
2022-12-17T03:52:05.666Z,-3.50
2022-12-17T03:54:51.229Z,-3.50
2022-12-17T03:57:36.476Z,-3.50
2022-12-17T04:00:23.598Z,-3.50
2022-12-17T04:03:10.438Z,-3.50
2022-12-17T04:05:57.558Z,-3.40
2022-12-17T04:08:45.312Z,-3.00
2022-12-17T04:11:31.630Z,-3.30
2022-12-17T04:14:17.874Z,-3.40
2022-12-17T04:17:04.361Z,-3.50
2022-12-17T04:20:05.740Z,-3.10
2022-12-17T04:22:52.789Z,-3.20
2022-12-17T04:25:40.514Z,-3.30
2022-12-17T04:28:27.580Z,-3.30
2022-12-17T04:31:10.510Z,-3.30
2022-12-17T04:33:56.943Z,-3.10
2022-12-17T04:36:43.313Z,-3.00
2022-12-17T04:39:30.044Z,-3.00
2022-12-17T04:42:18.181Z,-2.90
2022-12-17T04:45:04.407Z,-2.80
2022-12-17T04:47:50.604Z,-2.90
2022-12-17T04:50:37.254Z,-2.90
2022-12-17T04:53:24.871Z,-3.10
2022-12-17T04:56:12.755Z,-3.50
2022-12-17T04:59:00.449Z,-3.60
2022-12-17T05:01:47.089Z,-3.60
2022-12-17T05:04:33.460Z,-3.80
2022-12-17T05:07:19.695Z,-3.80
2022-12-17T05:10:06.062Z,-3.80
2022-12-17T05:12:52.247Z,-3.80
2022-12-17T05:15:40.185Z,-3.80
2022-12-17T05:18:27.411Z,-3.80
2022-12-17T05:21:13.817Z,-3.80
2022-12-17T05:24:00.649Z,-3.80
2022-12-17T05:26:47.921Z,-3.80
2022-12-17T05:29:49.372Z,-3.80
2022-12-17T05:32:37.725Z,-3.80
2022-12-17T05:35:24.728Z,-3.80
2022-12-17T05:38:10.477Z,-3.90
2022-12-17T05:40:57.367Z,-3.90
2022-12-17T05:43:43.823Z,-3.90
2022-12-17T05:46:30.218Z,-3.90
2022-12-17T05:49:18.510Z,-3.90
2022-12-17T05:52:04.830Z,-3.90
2022-12-17T05:54:51.280Z,-4.00
2022-12-17T05:57:37.149Z,-4.00
2022-12-17T06:00:24.492Z,-3.90
2022-12-17T06:03:17.188Z,-3.90
2022-12-17T06:06:06.036Z,-3.80
2022-12-17T06:08:52.543Z,-3.60
2022-12-17T06:11:39.021Z,-3.80
2022-12-17T06:14:27.461Z,-3.90
2022-12-17T06:17:14.435Z,-3.90
2022-12-17T06:20:01.062Z,-3.90
2022-12-17T06:22:48.422Z,-3.90
2022-12-17T06:25:34.002Z,-4.00
2022-12-17T06:28:20.869Z,-4.00
2022-12-17T06:31:11.450Z,-4.00
2022-12-17T06:33:57.202Z,-4.00
2022-12-17T06:36:43.432Z,-4.00
2022-12-17T06:39:38.577Z,-4.00
2022-12-17T06:42:24.425Z,-4.00
2022-12-17T06:45:10.057Z,-4.00
2022-12-17T06:47:55.423Z,-4.00
2022-12-17T06:50:40.989Z,-4.00
2022-12-17T06:53:26.352Z,-4.00
2022-12-17T06:56:15.897Z,-4.00
2022-12-17T06:59:01.528Z,-4.10
2022-12-17T07:01:47.538Z,-4.00
2022-12-17T07:04:33.883Z,-4.00
2022-12-17T07:07:19.361Z,-4.00
2022-12-17T07:10:08.024Z,-4.00
2022-12-17T07:12:58.937Z,-3.90
2022-12-17T07:15:44.603Z,-3.90
2022-12-17T07:18:30.173Z,-4.00
2022-12-17T07:21:15.789Z,-4.00
2022-12-17T07:24:01.213Z,-4.00
2022-12-17T07:26:46.831Z,-4.00
2022-12-17T07:29:33.681Z,-4.00
2022-12-17T07:32:19.045Z,-4.00
2022-12-17T07:35:04.763Z,-4.00
2022-12-17T07:37:50.305Z,-4.00
2022-12-17T07:40:35.720Z,-3.60
2022-12-17T07:43:28.489Z,-3.70
2022-12-17T07:46:15.204Z,-3.60
2022-12-17T07:49:00.646Z,-3.80
2022-12-17T07:51:46.178Z,-3.60
2022-12-17T07:54:31.764Z,-3.70
2022-12-17T07:57:17.198Z,-3.80
2022-12-17T08:00:05.064Z,-3.90
2022-12-17T08:02:51.928Z,-4.00
2022-12-17T08:05:39.495Z,-4.00
2022-12-17T08:08:28.521Z,-3.90
2022-12-17T08:11:14.200Z,-3.80
2022-12-17T08:13:59.756Z,-3.90
2022-12-17T08:16:45.297Z,-3.90
2022-12-17T08:19:31.824Z,-4.00
2022-12-17T08:22:22.719Z,-4.00
2022-12-17T08:25:08.244Z,-4.00
2022-12-17T08:27:53.701Z,-3.90
2022-12-17T08:30:39.719Z,-2.50
2022-12-17T08:33:25.753Z,-3.10
2022-12-17T08:36:13.918Z,-3.50
2022-12-17T08:38:59.358Z,-3.50
2022-12-17T08:41:46.586Z,-3.60
2022-12-17T08:44:33.829Z,-3.60
2022-12-17T08:47:19.160Z,-3.60
2022-12-17T08:50:04.691Z,-3.20
2022-12-17T08:52:51.441Z,-3.30
2022-12-17T08:55:36.933Z,-3.20
2022-12-17T08:58:22.273Z,-3.20
2022-12-17T09:01:07.435Z,-3.30
2022-12-17T09:03:53.088Z,-3.30
2022-12-17T09:06:39.142Z,-3.40
2022-12-17T09:09:26.383Z,-3.50
2022-12-17T09:12:11.871Z,-3.40
2022-12-17T09:14:57.200Z,-3.40
2022-12-17T09:17:42.936Z,-3.50
2022-12-17T09:20:29.785Z,-3.50
2022-12-17T09:23:15.445Z,-3.30
2022-12-17T09:26:02.168Z,-3.40
2022-12-17T09:28:47.584Z,-3.40
2022-12-17T09:31:37.192Z,-3.40
2022-12-17T09:34:23.277Z,-3.20
2022-12-17T09:37:08.893Z,-3.10
2022-12-17T09:39:54.458Z,-3.20
2022-12-17T09:42:51.769Z,-3.10
2022-12-17T09:45:47.770Z,-2.80
2022-12-17T09:48:41.252Z,-2.70
2022-12-17T09:51:38.812Z,-2.60
2022-12-17T09:54:30.806Z,-2.60
2022-12-17T09:57:17.149Z,-2.50
2022-12-17T10:00:12.609Z,-2.30
2022-12-17T10:02:58.343Z,-2.20
2022-12-17T10:05:47.293Z,-1.90
2022-12-17T10:08:47.693Z,-2.10
2022-12-17T10:11:38.684Z,-1.80
2022-12-17T10:14:35.573Z,-1.90
2022-12-17T10:17:22.872Z,-1.80
2022-12-17T10:20:10.077Z,-1.70
2022-12-17T10:23:03.146Z,-1.50
2022-12-17T10:25:48.944Z,-1.40
2022-12-17T10:28:36.571Z,-1.20
2022-12-17T10:31:28.144Z,-1.20
2022-12-17T10:34:16.128Z,-1.30
2022-12-17T10:37:05.050Z,-1.20
2022-12-17T10:39:51.312Z,-1.20
2022-12-17T10:42:40.352Z,-1.10
2022-12-17T10:45:43.819Z,-1.00
2022-12-17T10:48:40.623Z,-1.00
2022-12-17T10:51:38.363Z,-0.90
2022-12-17T10:54:36.880Z,-0.90
2022-12-17T10:57:24.591Z,-0.70
2022-12-17T11:00:10.569Z,-0.60
2022-12-17T11:02:56.327Z,-0.50
2022-12-17T11:05:46.506Z,-0.40
2022-12-17T11:08:35.216Z,-0.30
2022-12-17T11:11:25.450Z,-0.30
2022-12-17T11:14:12.608Z,-0.30
2022-12-17T11:17:03.061Z,-0.10
2022-12-17T11:19:54.558Z,0.00
2022-12-17T11:22:47.049Z,0.00
2022-12-17T11:25:47.288Z,0.10
2022-12-17T11:28:40.248Z,0.00
2022-12-17T11:31:43.861Z,0.10
2022-12-17T11:34:39.852Z,0.20
2022-12-17T11:37:34.145Z,0.20
2022-12-17T11:40:29.712Z,0.00
2022-12-17T11:43:21.816Z,0.10
2022-12-17T11:46:18.297Z,0.10
2022-12-17T11:49:10.219Z,0.00
2022-12-17T11:52:02.284Z,0.20
2022-12-17T11:54:55.271Z,0.10
2022-12-17T11:57:48.409Z,0.10
2022-12-17T12:00:38.345Z,0.00
2022-12-17T12:03:39.345Z,0.10
2022-12-17T12:06:32.303Z,0.10
2022-12-17T12:09:29.159Z,0.00
2022-12-17T12:12:22.676Z,0.10
2022-12-17T12:15:21.516Z,0.10
2022-12-17T12:18:14.927Z,0.00
2022-12-17T12:21:35.167Z,0.10
2022-12-17T12:24:33.933Z,0.10
2022-12-17T12:27:29.759Z,0.10
2022-12-17T12:30:21.809Z,0.10
2022-12-17T12:33:17.533Z,-0.10
2022-12-17T12:36:03.744Z,0.00
2022-12-17T12:38:57.885Z,0.00
2022-12-17T12:41:54.684Z,0.00
2022-12-17T12:44:49.788Z,0.00
2022-12-17T12:47:42.417Z,0.00
2022-12-17T12:50:38.985Z,0.00
2022-12-17T12:53:28.452Z,-0.20
2022-12-17T12:56:14.009Z,-0.20
2022-12-17T12:58:59.921Z,-0.20
2022-12-17T13:01:52.939Z,-0.20
2022-12-17T13:04:52.545Z,-0.30
2022-12-17T13:07:25.152Z,-0.40
2022-12-17T13:09:55.654Z,-0.30
2022-12-17T13:12:31.896Z,-0.30
2022-12-17T13:15:23.195Z,-0.50
2022-12-17T13:18:03.002Z,-0.50
2022-12-17T13:20:33.029Z,-0.60
2022-12-17T13:23:27.760Z,-0.60
2022-12-17T13:26:23.940Z,-0.50
2022-12-17T13:29:11.349Z,-0.50
2022-12-17T13:31:49.111Z,-0.70
2022-12-17T13:34:22.436Z,-0.80
2022-12-17T13:36:58.460Z,-0.90
2022-12-17T13:39:40.792Z,-0.90
2022-12-17T13:42:19.376Z,-0.80
2022-12-17T13:44:48.250Z,-0.80
2022-12-17T13:47:23.093Z,-0.80
2022-12-17T13:50:24.341Z,-0.80
2022-12-17T13:52:41.112Z,-0.90
2022-12-17T13:55:18.200Z,-0.90
2022-12-17T13:57:47.352Z,-0.90
2022-12-17T14:00:21.964Z,-0.90
2022-12-17T14:02:50.702Z,-1.00
2022-12-17T14:05:27.879Z,-1.00
2022-12-17T14:07:59.558Z,-1.00
2022-12-17T14:10:30.053Z,-1.10
2022-12-17T14:13:05.644Z,-1.10
2022-12-17T14:15:34.407Z,-1.10
2022-12-17T14:18:03.159Z,-1.10
2022-12-17T14:20:33.265Z,-1.20
2022-12-17T14:23:05.279Z,-1.20
2022-12-17T14:25:37.887Z,-1.20
2022-12-17T14:28:20.295Z,-1.20
2022-12-17T14:31:24.201Z,-1.20
2022-12-17T14:33:38.880Z,-1.30
2022-12-17T14:36:09.319Z,-1.30
2022-12-17T14:38:38.954Z,-1.30
2022-12-17T14:41:26.746Z,-1.30
2022-12-17T14:43:59.794Z,-1.30
2022-12-17T14:46:29.094Z,-1.40
2022-12-17T14:49:04.885Z,-1.40
2022-12-17T14:51:35.625Z,-1.50
2022-12-17T14:54:08.265Z,-1.60
2022-12-17T14:56:37.649Z,-1.60
2022-12-17T14:59:05.616Z,-1.60
2022-12-17T15:01:35.679Z,-1.70
2022-12-17T15:04:04.218Z,-1.70
2022-12-17T15:06:32.215Z,-1.70
2022-12-17T15:09:00.220Z,-1.70
2022-12-17T15:11:28.439Z,-1.80
2022-12-17T15:13:57.797Z,-1.80
2022-12-17T15:16:26.069Z,-1.90
2022-12-17T15:18:54.125Z,-1.90
2022-12-17T15:21:22.462Z,-2.00
2022-12-17T15:23:50.573Z,-2.00
2022-12-17T15:26:19.602Z,-2.00
2022-12-17T15:28:47.604Z,-2.10
2022-12-17T15:31:21.875Z,-2.00
2022-12-17T15:33:52.642Z,-2.10
2022-12-17T15:36:20.749Z,-2.00
2022-12-17T15:38:48.773Z,-2.00
2022-12-17T15:41:34.057Z,-2.10
2022-12-17T15:44:02.260Z,-2.10
2022-12-17T15:46:31.700Z,-2.10
2022-12-17T15:48:59.793Z,-2.10
2022-12-17T15:51:27.863Z,-2.20
2022-12-17T15:53:55.848Z,-2.10
2022-12-17T15:56:25.712Z,-2.30
2022-12-17T15:58:53.900Z,-2.20
2022-12-17T16:01:22.045Z,-2.20
2022-12-17T16:03:51.575Z,-2.20
2022-12-17T16:06:19.737Z,-2.20
2022-12-17T16:08:47.749Z,-2.20
2022-12-17T16:11:16.958Z,-2.20
2022-12-17T16:13:45.005Z,-2.30
2022-12-17T16:16:13.147Z,-2.40
2022-12-17T16:18:41.525Z,-2.40
2022-12-17T16:21:11.066Z,-2.40
2022-12-17T16:23:39.285Z,-2.40
2022-12-17T16:26:09.402Z,-2.40
2022-12-17T16:28:37.908Z,-2.40
2022-12-17T16:31:08.471Z,-2.40
2022-12-17T16:33:38.255Z,-2.40
2022-12-17T16:36:07.902Z,-2.50
2022-12-17T16:38:37.658Z,-2.50
2022-12-17T16:41:06.129Z,-2.60
2022-12-17T16:43:35.627Z,-2.60
2022-12-17T16:46:09.095Z,-2.60
2022-12-17T16:48:40.543Z,-2.60
2022-12-17T16:51:22.611Z,-2.60
2022-12-17T16:53:57.497Z,-2.60
2022-12-17T16:56:28.510Z,-2.60
2022-12-17T16:58:56.681Z,-2.60
2022-12-17T17:01:26.613Z,-2.40
2022-12-17T17:03:55.320Z,-2.60
2022-12-17T17:06:27.729Z,-2.60
2022-12-17T17:08:59.656Z,-2.50
2022-12-17T17:11:27.660Z,-2.50
2022-12-17T17:13:55.963Z,-2.60
2022-12-17T17:16:25.794Z,-2.70
2022-12-17T17:18:55.219Z,-2.70
2022-12-17T17:21:27.991Z,-2.60
2022-12-17T17:23:59.847Z,-2.60
2022-12-17T17:26:28.606Z,-2.70
2022-12-17T17:28:57.181Z,-2.70
2022-12-17T17:31:46.504Z,-2.80
2022-12-17T17:34:15.514Z,-2.80
2022-12-17T17:36:43.949Z,-2.80
2022-12-17T17:39:13.317Z,-2.80
2022-12-17T17:41:41.292Z,-2.80
2022-12-17T17:44:12.402Z,-2.80
2022-12-17T17:46:40.923Z,-2.80
2022-12-17T17:49:09.735Z,-2.90
2022-12-17T17:54:31.697Z,-3.00
2022-12-17T17:56:59.736Z,-2.90
2022-12-17T17:59:33.273Z,-3.00
2022-12-17T18:02:02.729Z,-3.00
2022-12-17T18:04:31.777Z,-3.00
2022-12-17T18:07:24.135Z,-3.00
2022-12-17T18:09:49.204Z,-3.00
2022-12-17T18:12:34.861Z,-3.00
2022-12-17T18:15:14.376Z,-3.10
2022-12-17T18:17:43.558Z,-3.00
2022-12-17T18:20:13.644Z,-3.10
2022-12-17T18:22:41.853Z,-3.10
2022-12-17T18:25:11.411Z,-3.10
2022-12-17T18:27:39.702Z,-3.10
2022-12-17T18:30:08.683Z,-3.10
2022-12-17T18:32:36.700Z,-3.10
2022-12-17T18:35:04.933Z,-3.10
2022-12-17T18:37:33.030Z,-3.20
2022-12-17T18:40:01.128Z,-3.10
2022-12-17T18:42:47.776Z,-3.20
2022-12-17T18:45:15.907Z,-3.30
2022-12-17T18:47:44.699Z,-3.30
2022-12-17T18:50:13.968Z,-3.20
2022-12-17T18:52:42.334Z,-3.20
2022-12-17T18:55:10.441Z,-3.10
2022-12-17T18:57:39.887Z,-3.20
2022-12-17T19:00:09.173Z,-3.20
2022-12-17T19:02:37.420Z,-3.20
2022-12-17T19:05:05.936Z,-3.20
2022-12-17T19:07:34.015Z,-3.20
2022-12-17T19:10:02.008Z,-3.20
2022-12-17T19:12:30.087Z,-3.20
2022-12-17T19:14:59.536Z,-3.10
2022-12-17T19:17:27.584Z,-3.20
2022-12-17T19:19:55.678Z,-3.20
2022-12-17T19:22:23.745Z,-3.20
2022-12-17T19:24:51.906Z,-3.20
2022-12-17T19:27:19.989Z,-3.10
2022-12-17T19:29:49.866Z,-3.20
2022-12-17T19:32:19.758Z,-3.10
2022-12-17T19:34:47.901Z,-3.20
2022-12-17T19:37:16.053Z,-3.20
2022-12-17T19:39:44.073Z,-3.20
2022-12-17T19:42:24.875Z,-3.30
2022-12-17T19:44:54.213Z,-3.20
2022-12-17T19:47:24.598Z,-3.30
2022-12-17T19:49:52.869Z,-3.30
2022-12-17T19:52:20.969Z,-3.30
2022-12-17T19:54:50.999Z,-3.30
2022-12-17T19:57:19.042Z,-3.40
2022-12-17T19:59:47.245Z,-3.40
2022-12-17T20:02:17.335Z,-3.40
2022-12-17T20:04:47.052Z,-3.40
2022-12-17T20:07:15.041Z,-3.40
2022-12-17T20:09:44.585Z,-3.50
2022-12-17T20:12:13.300Z,-3.50
2022-12-17T20:14:41.400Z,-3.50
2022-12-17T20:17:10.328Z,-3.50
2022-12-17T20:19:38.750Z,-3.50
2022-12-17T20:22:08.983Z,-3.50
2022-12-17T20:24:39.166Z,-3.50
2022-12-17T20:27:07.579Z,-3.50
2022-12-17T20:29:35.772Z,-3.40
2022-12-17T20:32:04.207Z,-3.50
2022-12-17T20:34:32.373Z,-3.50
2022-12-17T20:37:00.395Z,-3.50
2022-12-17T20:39:29.930Z,-3.50
2022-12-17T20:41:58.309Z,-3.50
2022-12-17T20:44:26.673Z,-3.60
2022-12-17T20:46:54.747Z,-3.60
2022-12-17T20:49:22.995Z,-3.60
2022-12-17T20:51:51.050Z,-3.50
2022-12-17T20:54:19.228Z,-3.40
2022-12-17T20:56:49.005Z,-3.50
2022-12-17T20:59:19.023Z,-3.60
2022-12-17T21:01:54.223Z,-3.60
2022-12-17T21:04:24.379Z,-3.50
2022-12-17T21:06:52.870Z,-3.50
2022-12-17T21:09:22.505Z,-3.60
2022-12-17T21:11:52.205Z,-3.50
2022-12-17T21:14:20.876Z,-3.50
2022-12-17T21:16:49.390Z,-3.60
2022-12-17T21:19:21.960Z,-3.60
2022-12-17T21:21:50.319Z,-3.70
2022-12-17T21:24:18.455Z,-3.70
2022-12-17T21:26:47.082Z,-3.70
2022-12-17T21:29:17.069Z,-3.70
2022-12-17T21:31:47.629Z,-3.70
2022-12-17T21:34:17.999Z,-3.70
2022-12-17T21:36:46.097Z,-3.70
2022-12-17T21:39:15.297Z,-3.70
2022-12-17T21:42:04.993Z,-3.70
2022-12-17T21:44:34.426Z,-3.70
2022-12-17T21:47:02.852Z,-3.70
2022-12-17T21:49:31.350Z,-3.70
2022-12-17T21:52:00.678Z,-3.60
2022-12-17T21:54:28.946Z,-3.60
2022-12-17T21:56:57.057Z,-3.70
2022-12-17T21:59:25.313Z,-3.80
2022-12-17T22:01:57.303Z,-3.80
2022-12-17T22:04:26.554Z,-3.70
2022-12-17T22:06:58.997Z,-3.80
2022-12-17T22:10:24.359Z,-3.80
2022-12-17T22:12:41.812Z,-3.80
2022-12-17T22:15:12.220Z,-3.80
2022-12-17T22:17:43.137Z,-3.80
2022-12-17T22:20:12.050Z,-3.80
2022-12-17T22:22:40.174Z,-3.80
2022-12-17T22:25:10.404Z,-3.90
2022-12-17T22:27:39.971Z,-3.90
2022-12-17T22:30:30.685Z,-3.90
2022-12-17T22:33:30.088Z,-3.90
2022-12-17T22:38:04.714Z,-3.90
2022-12-17T22:43:38.745Z,-3.90
2022-12-17T22:44:35.977Z,-3.90
2022-12-17T22:44:51.390Z,-3.90
2022-12-17T22:47:20.949Z,-3.90
2022-12-17T22:49:50.425Z,-3.90
2022-12-17T22:52:19.628Z,-4.00
2022-12-17T22:54:48.581Z,-4.00
2022-12-17T22:57:34.803Z,-4.00
2022-12-17T23:00:14.010Z,-4.00
2022-12-17T23:02:48.586Z,-4.00
2022-12-17T23:05:18.067Z,-4.00
2022-12-17T23:07:46.098Z,-3.90
2022-12-17T23:10:14.137Z,-4.00
2022-12-17T23:12:54.833Z,-4.00
2022-12-17T23:15:25.964Z,-4.00
2022-12-17T23:17:56.700Z,-4.00
2022-12-17T23:20:27.550Z,-4.00
2022-12-17T23:22:55.792Z,-4.00
2022-12-17T23:25:24.273Z,-4.00
2022-12-17T23:27:53.082Z,-4.00
2022-12-17T23:30:22.017Z,-4.10
2022-12-17T23:32:51.798Z,-4.00
2022-12-17T23:35:19.966Z,-4.00
2022-12-17T23:37:49.428Z,-4.10
2022-12-17T23:40:17.435Z,-4.10
2022-12-17T23:42:45.437Z,-4.10
2022-12-17T23:45:13.555Z,-4.10
2022-12-17T23:47:42.218Z,-4.10
2022-12-17T23:50:11.551Z,-4.00
2022-12-17T23:52:39.860Z,-4.10
2022-12-17T23:55:11.427Z,-4.10
2022-12-17T23:57:39.505Z,-4.10
